Аэропорт: Омск-Центральный. Омск

ICAO: UNOO

METAR:
2024-04-22 23:00:00
UNOO 222300Z 01007MPS CAVOK 00/M07 Q1027 R07/CLRD60 NOSIG RMK QFE761
TAF:
2024-04-22 22:55:00
TAF UNOO 222255Z 2300/2324 36006G12MPS 9999 SCT033 
  TEMPO 2300/2306 03006G12MPS 
  BECMG 2306/2308 35003G08MPS